Aviation Digital Data Service (ADDS)

Output produced by TAFs form (2223 UTC 29 January 2015)
found at http://www.aviationweather.gov/adds/tafs/
 
KMDT 292156Z 2922/3018 18012G20KT 2SM -SN SCT025 OVC035 
     TEMPO 2922/2923 1SM -SN BKN025 
     FM300000 15008KT 5SM BR VCSH OVC025 
     FM300800 29010KT P6SM VCSH OVC050